Multan Weather



Multan's Current Weather

Temprature 38o haze

haze

Rain: 0 %

Min Temprature38o
Max Temprature38o
Humidity22
Wind Speed3.09 m/h
Sun Rise05:25:16
Sun Set18:55:55
Current Time: 08-May-2021 14:24:56
Lat/Lon: 30.1956, 71.4753




Multan's Geo Location



Multan's Weather Forecast

Time Overall Temp Min Temp Max Temp Humidity Wind Speed Rain
08-May-2021 (Sat)
17:00:00 broken clouds 38.980 38.980 40.930 17 4.16 m/h 0 %
20:00:00 broken clouds 36.940 36.410 36.940 14 1.57 m/h 0 %
23:00:00 broken clouds 31.180 31.180 31.180 26 6.51 m/h 0 %
09-May-2021 (Sun)
02:00:00 overcast clouds 30.000 30.000 30.000 28 3.8 m/h 0 %
05:00:00 broken clouds 29.470 29.470 29.470 27 2.8 m/h 0 %
08:00:00 clear sky 33.930 33.930 33.930 18 1.57 m/h 0 %
11:00:00 few clouds 39.730 39.730 39.730 12 1.81 m/h 0 %
14:00:00 clear sky 42.430 42.430 42.430 9 3.39 m/h 0 %
17:00:00 few clouds 42.180 42.180 42.180 8 3.04 m/h 0 %
20:00:00 clear sky 37.020 37.020 37.020 13 1.96 m/h 0 %
23:00:00 clear sky 33.810 33.810 33.810 16 3.42 m/h 0 %
10-May-2021 (Mon)
02:00:00 clear sky 31.990 31.990 31.990 19 2.71 m/h 0 %
05:00:00 scattered clouds 30.620 30.620 30.620 21 1.38 m/h 0 %
08:00:00 clear sky 34.770 34.770 34.770 17 2.07 m/h 0 %
11:00:00 clear sky 40.250 40.250 40.250 12 3.68 m/h 0 %
14:00:00 clear sky 42.760 42.760 42.760 9 2.9 m/h 0 %
17:00:00 clear sky 41.470 41.470 41.470 11 3.29 m/h 0 %
20:00:00 broken clouds 33.580 33.580 33.580 24 7.71 m/h 0 %
23:00:00 scattered clouds 32.570 32.570 32.570 25 4.97 m/h 0 %
11-May-2021 (Tue)
02:00:00 broken clouds 30.760 30.760 30.760 29 6.88 m/h 0 %
05:00:00 scattered clouds 29.340 29.340 29.340 34 3.53 m/h 0 %
08:00:00 clear sky 34.190 34.190 34.190 26 4.8 m/h 0 %
11:00:00 clear sky 39.950 39.950 39.950 15 2.01 m/h 0 %
14:00:00 clear sky 43.080 43.080 43.080 10 2.32 m/h 0 %
17:00:00 clear sky 42.920 42.920 42.920 10 4.1 m/h 0 %
20:00:00 light rain 32.310 32.310 32.310 30 6.1 m/h 76 %
23:00:00 overcast clouds 33.070 33.070 33.070 26 3.96 m/h 0 %
12-May-2021 (Wed)
02:00:00 overcast clouds 32.670 32.670 32.670 26 3.7 m/h 0 %
05:00:00 overcast clouds 30.900 30.900 30.900 30 0.77 m/h 0 %
08:00:00 overcast clouds 33.410 33.410 33.410 26 1.67 m/h 0 %
11:00:00 overcast clouds 37.480 37.480 37.480 20 2.79 m/h 0 %
14:00:00 broken clouds 40.030 40.030 40.030 16 1.81 m/h 0 %
17:00:00 scattered clouds 37.840 37.840 37.840 19 6.61 m/h 0 %
20:00:00 light rain 26.590 26.590 26.590 55 7.84 m/h 278 %
23:00:00 broken clouds 28.810 28.810 28.810 38 2.15 m/h 0 %
13-May-2021 (Thu)
02:00:00 broken clouds 27.960 27.960 27.960 41 0.83 m/h 0 %
05:00:00 scattered clouds 27.110 27.110 27.110 44 1.59 m/h 0 %
08:00:00 scattered clouds 29.940 29.940 29.940 37 2.65 m/h 0 %
11:00:00 broken clouds 34.520 34.520 34.520 26 2.83 m/h 0 %
14:00:00 clear sky 37.740 37.740 37.740 20 1.31 m/h 0 %

Famous Cities (60)